createdAt,value
2023-05-15T00:00:06.579Z,15.56
2023-05-15T00:02:57.838Z,15.53
2023-05-15T00:05:44.030Z,14.47
2023-05-15T00:08:29.499Z,15.37
2023-05-15T00:11:14.953Z,14.36
2023-05-15T00:14:00.865Z,15.34
2023-05-15T00:16:47.969Z,14.72
2023-05-15T00:19:33.553Z,15.22
2023-05-15T00:22:18.852Z,14.23
2023-05-15T00:25:04.612Z,15.16
2023-05-15T00:27:50.391Z,15.11
2023-05-15T00:30:35.857Z,15.05
2023-05-15T00:33:21.405Z,14.83
2023-05-15T00:36:07.301Z,15.04
2023-05-15T00:38:54.011Z,14.91
2023-05-15T00:41:41.324Z,14.71
2023-05-15T00:44:28.079Z,14.37
2023-05-15T00:47:15.465Z,13.69
2023-05-15T00:50:02.051Z,13.73
2023-05-15T00:52:47.698Z,14.17
2023-05-15T00:55:34.241Z,14.92
2023-05-15T00:58:22.100Z,14.62
2023-05-15T01:01:09.775Z,14.88
2023-05-15T01:03:55.373Z,14.81
2023-05-15T01:06:40.936Z,14.85
2023-05-15T01:09:30.080Z,14.83
2023-05-15T01:12:18.560Z,14.80
2023-05-15T01:15:04.174Z,14.81
2023-05-15T01:17:50.701Z,13.99
2023-05-15T01:21:11.196Z,14.80
2023-05-15T01:24:08.313Z,14.83
2023-05-15T01:27:06.392Z,14.83
2023-05-15T01:30:13.778Z,14.83
2023-05-15T01:33:00.398Z,14.81
2023-05-15T01:35:52.003Z,14.67
2023-05-15T01:38:49.178Z,14.49
2023-05-15T01:41:52.271Z,14.76
2023-05-15T01:44:46.537Z,13.99
2023-05-15T01:47:39.602Z,14.75
2023-05-15T01:50:27.903Z,14.37
2023-05-15T01:53:15.149Z,14.23
2023-05-15T01:56:02.731Z,14.37
2023-05-15T01:58:48.736Z,14.73
2023-05-15T02:01:36.467Z,14.70
2023-05-15T02:04:22.491Z,14.35
2023-05-15T02:07:09.098Z,14.59
2023-05-15T02:09:55.920Z,14.37
2023-05-15T02:12:42.517Z,14.77
2023-05-15T02:15:29.636Z,13.75
2023-05-15T02:18:15.450Z,14.71
2023-05-15T02:21:03.559Z,14.80
2023-05-15T02:23:49.340Z,14.55
2023-05-15T02:26:53.248Z,14.81
2023-05-15T02:30:00.620Z,14.81
2023-05-15T02:33:23.570Z,14.82
2023-05-15T02:36:14.005Z,14.82
2023-05-15T02:39:00.763Z,14.57
2023-05-15T02:41:47.666Z,13.76
2023-05-15T02:44:36.644Z,14.24
2023-05-15T02:47:23.803Z,14.75
2023-05-15T02:50:10.274Z,14.20
2023-05-15T02:53:06.060Z,14.79
2023-05-15T02:55:52.212Z,13.63
2023-05-15T02:58:38.657Z,14.70
2023-05-15T03:01:24.187Z,13.57
2023-05-15T03:04:09.501Z,14.67
2023-05-15T03:06:54.932Z,13.65
2023-05-15T03:09:41.148Z,14.53
2023-05-15T03:12:26.880Z,14.30
2023-05-15T03:15:12.076Z,13.77
2023-05-15T03:17:57.781Z,13.82
2023-05-15T03:20:43.674Z,13.77
2023-05-15T03:23:28.984Z,14.21
2023-05-15T03:26:14.510Z,13.84
2023-05-15T03:29:01.112Z,14.35
2023-05-15T03:31:46.733Z,13.80
2023-05-15T03:34:32.529Z,14.30
2023-05-15T03:37:18.048Z,14.74
2023-05-15T03:40:04.422Z,13.51
2023-05-15T03:42:53.334Z,13.41
2023-05-15T03:45:39.192Z,13.63
2023-05-15T03:48:24.547Z,14.68
2023-05-15T03:51:10.131Z,14.73
2023-05-15T03:53:58.629Z,14.74
2023-05-15T03:56:44.769Z,14.43
2023-05-15T03:59:30.009Z,13.61
2023-05-15T04:02:15.505Z,14.77
2023-05-15T04:05:00.895Z,14.28
2023-05-15T04:07:46.116Z,13.76
2023-05-15T04:10:32.732Z,13.59
2023-05-15T04:13:18.421Z,14.87
2023-05-15T04:16:04.448Z,14.65
2023-05-15T04:18:49.788Z,14.85
2023-05-15T04:21:35.097Z,13.84
2023-05-15T04:24:20.476Z,13.82
2023-05-15T04:27:05.878Z,14.91
2023-05-15T04:29:51.133Z,13.66
2023-05-15T04:32:37.911Z,13.88
2023-05-15T04:35:23.554Z,15.13
2023-05-15T04:38:08.900Z,15.20
2023-05-15T04:40:54.615Z,15.23
2023-05-15T04:43:41.344Z,15.38
2023-05-15T04:46:29.214Z,13.99
2023-05-15T04:49:14.709Z,15.31
2023-05-15T04:52:00.014Z,15.50
2023-05-15T04:54:48.001Z,15.40
2023-05-15T04:57:33.594Z,14.37
2023-05-15T05:00:18.932Z,15.67
2023-05-15T05:03:04.932Z,15.16
2023-05-15T05:05:50.457Z,15.51
2023-05-15T05:08:36.065Z,15.15
2023-05-15T05:11:21.598Z,14.63
2023-05-15T05:14:07.938Z,15.68
2023-05-15T05:16:53.253Z,15.99
2023-05-15T05:19:38.542Z,14.98
2023-05-15T05:22:24.017Z,16.41
2023-05-15T05:25:10.142Z,15.52
2023-05-15T05:27:55.843Z,16.89
2023-05-15T05:30:48.414Z,16.19
2023-05-15T05:33:34.903Z,17.00
2023-05-15T05:36:20.492Z,16.81
2023-05-15T05:39:06.047Z,17.17
2023-05-15T05:41:51.536Z,16.20
2023-05-15T05:44:36.793Z,16.73
2023-05-15T05:47:22.459Z,16.92
2023-05-15T05:50:08.389Z,15.93
2023-05-15T05:52:53.782Z,16.11
2023-05-15T05:55:39.052Z,16.93
2023-05-15T05:58:25.893Z,16.94
2023-05-15T06:01:12.130Z,16.96
2023-05-15T06:03:57.914Z,17.27
2023-05-15T06:06:43.584Z,17.04
2023-05-15T06:09:29.601Z,16.39
2023-05-15T06:12:14.906Z,17.00
2023-05-15T06:15:00.323Z,18.03
2023-05-15T06:17:45.575Z,18.19
2023-05-15T06:20:31.241Z,18.13
2023-05-15T06:23:17.189Z,17.93
2023-05-15T06:26:03.579Z,16.70
2023-05-15T06:28:49.152Z,16.87
2023-05-15T06:31:34.632Z,17.34
2023-05-15T06:34:20.508Z,18.04
2023-05-15T06:37:06.085Z,18.15
2023-05-15T06:39:51.140Z,18.23
2023-05-15T06:42:37.058Z,17.94
2023-05-15T06:45:22.684Z,18.06
2023-05-15T06:48:08.769Z,18.09
2023-05-15T06:50:54.519Z,18.33
2023-05-15T06:53:41.940Z,18.18
2023-05-15T06:56:27.428Z,17.76
2023-05-15T06:59:12.996Z,17.95
2023-05-15T07:01:58.285Z,18.12
2023-05-15T07:04:46.561Z,17.84
2023-05-15T07:07:31.912Z,17.32
2023-05-15T07:10:18.023Z,18.01
2023-05-15T07:13:03.258Z,16.91
2023-05-15T07:15:49.088Z,16.80
2023-05-15T07:18:34.670Z,17.47
2023-05-15T07:21:19.899Z,17.83
2023-05-15T07:24:05.870Z,17.61
2023-05-15T07:29:42.804Z,17.81
2023-05-15T07:32:28.400Z,16.84
2023-05-15T07:35:13.700Z,17.45
2023-05-15T07:37:58.997Z,18.08
2023-05-15T07:40:44.315Z,18.15
2023-05-15T07:43:29.821Z,18.38
2023-05-15T07:46:15.302Z,18.70
2023-05-15T07:49:00.803Z,18.92
2023-05-15T07:51:46.206Z,18.38
2023-05-15T07:54:32.161Z,18.92
2023-05-15T07:57:17.540Z,19.33
2023-05-15T08:00:10.064Z,18.99
2023-05-15T08:03:00.137Z,19.38
2023-05-15T08:05:45.952Z,19.02
2023-05-15T08:08:31.334Z,18.89
2023-05-15T08:11:18.255Z,19.34
2023-05-15T08:14:03.844Z,18.93
2023-05-15T08:16:51.460Z,18.38
2023-05-15T08:19:37.075Z,19.54
2023-05-15T08:22:22.444Z,18.67
2023-05-15T08:25:08.802Z,19.54
2023-05-15T08:27:53.977Z,19.61
2023-05-15T08:30:39.385Z,19.68
2023-05-15T08:33:24.766Z,19.73
2023-05-15T08:36:10.299Z,18.87
2023-05-15T08:38:55.835Z,19.79
2023-05-15T08:41:51.366Z,18.73
2023-05-15T08:44:37.044Z,19.80
2023-05-15T08:47:23.561Z,19.61
2023-05-15T08:50:12.660Z,18.82
2023-05-15T08:53:00.323Z,19.63
2023-05-15T08:55:46.046Z,19.51
2023-05-15T08:58:32.639Z,19.37
2023-05-15T09:01:18.248Z,20.07
2023-05-15T09:04:04.508Z,18.97
2023-05-15T09:06:49.961Z,19.29
2023-05-15T09:09:36.631Z,20.20
2023-05-15T09:12:24.830Z,20.16
2023-05-15T09:15:18.832Z,20.09
2023-05-15T09:18:06.136Z,20.06
2023-05-15T09:20:52.097Z,19.60
2023-05-15T09:23:38.645Z,19.81
2023-05-15T09:26:25.110Z,19.98
2023-05-15T09:29:11.633Z,18.97
2023-05-15T09:31:57.681Z,19.86
2023-05-15T09:34:44.856Z,20.01
2023-05-15T09:37:34.320Z,18.97
2023-05-15T09:40:19.583Z,19.14
2023-05-15T09:43:05.522Z,19.43
2023-05-15T09:45:51.197Z,19.98
2023-05-15T09:48:36.972Z,19.36
2023-05-15T09:51:22.791Z,19.97
2023-05-15T09:54:15.554Z,19.03
2023-05-15T09:57:12.008Z,19.82
2023-05-15T10:00:05.183Z,18.82
2023-05-15T10:03:07.403Z,18.66
2023-05-15T10:05:59.934Z,19.67
2023-05-15T10:08:52.525Z,19.70
2023-05-15T10:11:40.247Z,19.74
2023-05-15T10:14:26.835Z,19.81
2023-05-15T10:17:14.216Z,19.87
2023-05-15T10:20:00.863Z,19.92
2023-05-15T10:22:56.531Z,20.00
2023-05-15T10:26:00.055Z,19.12
2023-05-15T10:28:46.585Z,19.98
2023-05-15T10:31:32.968Z,20.11
2023-05-15T10:34:19.003Z,19.17
2023-05-15T10:37:05.954Z,20.20
2023-05-15T10:39:55.993Z,20.51
2023-05-15T10:42:43.584Z,20.59
2023-05-15T10:45:31.407Z,19.63
2023-05-15T10:48:17.751Z,20.40
2023-05-15T10:51:03.310Z,20.58
2023-05-15T10:53:49.422Z,19.90
2023-05-15T10:56:38.379Z,20.60
2023-05-15T10:59:32.684Z,20.62
2023-05-15T11:02:29.572Z,19.57
2023-05-15T11:05:14.887Z,20.27
2023-05-15T11:08:15.649Z,20.83
2023-05-15T11:11:01.434Z,19.56
2023-05-15T11:14:05.685Z,20.89
2023-05-15T11:16:54.465Z,20.90
2023-05-15T11:19:49.078Z,20.92
2023-05-15T11:22:36.102Z,20.28
2023-05-15T11:25:29.977Z,20.99
2023-05-15T11:28:26.055Z,20.67
2023-05-15T11:31:11.953Z,20.72
2023-05-15T11:33:57.981Z,20.29
2023-05-15T11:36:43.718Z,21.25
2023-05-15T11:39:29.593Z,21.25
2023-05-15T11:42:15.138Z,20.43
2023-05-15T11:45:01.123Z,21.33
2023-05-15T11:47:47.259Z,21.38
2023-05-15T11:50:35.039Z,21.37
2023-05-15T11:53:24.106Z,20.60
2023-05-15T11:56:23.249Z,21.50
2023-05-15T11:59:12.182Z,21.55
2023-05-15T12:01:59.672Z,21.65
2023-05-15T12:04:45.194Z,21.71
2023-05-15T12:07:31.555Z,21.72
2023-05-15T12:10:17.554Z,21.76
2023-05-15T12:13:03.453Z,20.87
2023-05-15T12:15:48.782Z,21.70
2023-05-15T12:18:34.664Z,20.70
2023-05-15T12:21:20.983Z,21.75
2023-05-15T12:24:08.125Z,21.70
2023-05-15T12:26:55.976Z,21.72
2023-05-15T12:29:43.002Z,20.84
2023-05-15T12:32:31.584Z,21.63
2023-05-15T12:35:16.887Z,21.59
2023-05-15T12:38:06.562Z,21.60
2023-05-15T12:40:57.175Z,20.49
2023-05-15T12:43:43.034Z,21.54
2023-05-15T12:46:32.710Z,21.45
2023-05-15T12:49:22.802Z,20.61
2023-05-15T12:52:10.073Z,21.37
2023-05-15T12:54:55.990Z,21.50
2023-05-15T12:57:42.707Z,21.47
2023-05-15T13:00:32.183Z,21.51
2023-05-15T13:03:20.449Z,21.48
2023-05-15T13:06:07.402Z,20.34
2023-05-15T13:08:55.085Z,20.44
2023-05-15T13:11:44.944Z,20.44
2023-05-15T13:14:34.286Z,20.44
2023-05-15T13:17:21.947Z,21.32
2023-05-15T13:20:08.865Z,21.28
2023-05-15T13:22:54.819Z,21.39
2023-05-15T13:25:40.787Z,21.54
2023-05-15T13:28:26.351Z,20.38
2023-05-15T13:31:12.045Z,21.50
2023-05-15T13:33:57.899Z,21.29
2023-05-15T13:36:43.304Z,21.38
2023-05-15T13:39:28.792Z,21.24
2023-05-15T13:42:14.196Z,20.97
2023-05-15T13:44:59.431Z,20.43
2023-05-15T13:47:45.083Z,20.90
2023-05-15T13:50:30.669Z,21.20
2023-05-15T13:53:17.049Z,20.10
2023-05-15T13:56:03.383Z,20.49
2023-05-15T13:58:48.891Z,20.04
2023-05-15T14:01:34.179Z,20.83
2023-05-15T14:04:20.548Z,20.98
2023-05-15T14:07:06.452Z,20.58
2023-05-15T14:09:52.111Z,20.98
2023-05-15T14:12:37.818Z,19.93
2023-05-15T14:15:23.487Z,20.95
2023-05-15T14:18:08.935Z,20.91
2023-05-15T14:20:54.370Z,20.86
2023-05-15T14:23:39.463Z,20.45
2023-05-15T14:26:25.097Z,19.90
2023-05-15T14:29:10.480Z,19.79
2023-05-15T14:31:55.914Z,20.34
2023-05-15T14:34:41.250Z,20.77
2023-05-15T14:37:27.613Z,19.67
2023-05-15T14:40:13.281Z,20.70
2023-05-15T14:42:59.111Z,20.69
2023-05-15T14:45:44.444Z,20.31
2023-05-15T14:48:30.078Z,20.66
2023-05-15T14:51:16.036Z,20.17
2023-05-15T14:54:02.646Z,20.63
2023-05-15T14:56:48.474Z,19.54
2023-05-15T14:59:34.192Z,20.64
2023-05-15T15:02:19.678Z,19.57
2023-05-15T15:05:05.724Z,19.57
2023-05-15T15:08:05.424Z,19.55
2023-05-15T15:10:50.825Z,20.38
2023-05-15T15:13:36.329Z,19.33
2023-05-15T15:16:22.516Z,20.34
2023-05-15T15:19:07.906Z,20.51
2023-05-15T15:21:53.305Z,19.32
2023-05-15T15:24:38.598Z,19.44
2023-05-15T15:27:23.882Z,19.78
2023-05-15T15:30:11.143Z,20.38
2023-05-15T15:32:58.221Z,20.30
2023-05-15T15:35:44.356Z,19.16
2023-05-15T15:38:29.782Z,20.25
2023-05-15T15:41:15.132Z,19.87
2023-05-15T15:44:01.397Z,20.16
2023-05-15T15:46:47.003Z,19.04
2023-05-15T15:49:32.402Z,19.97
2023-05-15T15:52:18.555Z,19.73
2023-05-15T15:55:04.570Z,19.74
2023-05-15T15:57:50.183Z,18.60
2023-05-15T16:00:37.134Z,19.52
2023-05-15T16:03:22.748Z,18.48
2023-05-15T16:06:08.177Z,19.34
2023-05-15T16:08:53.421Z,18.29
2023-05-15T16:11:38.736Z,19.12
2023-05-15T16:14:24.568Z,18.85
2023-05-15T16:17:10.144Z,18.95
2023-05-15T16:19:56.081Z,18.88
2023-05-15T16:22:43.097Z,18.88
2023-05-15T16:25:28.774Z,18.79
2023-05-15T16:28:14.685Z,18.73
2023-05-15T16:31:00.837Z,17.67
2023-05-15T16:33:47.108Z,18.46
2023-05-15T16:36:32.777Z,17.45
2023-05-15T16:39:18.076Z,17.46
2023-05-15T16:42:03.614Z,18.53
2023-05-15T16:44:49.005Z,18.26
2023-05-15T16:47:37.618Z,18.04
2023-05-15T16:50:23.077Z,18.13
2023-05-15T16:53:08.540Z,18.28
2023-05-15T16:55:54.089Z,18.32
2023-05-15T16:58:41.915Z,18.11
2023-05-15T17:01:27.169Z,17.21
2023-05-15T17:04:12.568Z,17.74
2023-05-15T17:06:58.091Z,17.20
2023-05-15T17:09:44.630Z,17.05
2023-05-15T17:12:30.551Z,18.11
2023-05-15T17:15:15.806Z,18.08
2023-05-15T17:18:01.506Z,16.87
2023-05-15T17:20:46.822Z,16.89
2023-05-15T17:23:32.650Z,17.76
2023-05-15T17:26:18.402Z,17.88
2023-05-15T17:29:04.154Z,17.71
2023-05-15T17:31:49.579Z,17.64
2023-05-15T17:34:35.075Z,16.80
2023-05-15T17:37:20.303Z,17.29
2023-05-15T17:40:06.960Z,17.48
2023-05-15T17:42:52.444Z,17.38
2023-05-15T17:45:38.050Z,17.08
2023-05-15T17:48:23.419Z,16.19
2023-05-15T17:51:08.828Z,16.29
2023-05-15T17:53:54.276Z,16.41
2023-05-15T17:56:39.612Z,17.20
2023-05-15T17:59:25.120Z,16.28
2023-05-15T18:02:10.656Z,15.97
2023-05-15T18:04:57.130Z,16.20
2023-05-15T18:07:42.688Z,16.32
2023-05-15T18:10:28.097Z,17.10
2023-05-15T18:13:13.506Z,17.24
2023-05-15T18:15:58.888Z,16.22
2023-05-15T18:18:44.111Z,16.11
2023-05-15T18:21:29.726Z,16.98
2023-05-15T18:24:15.630Z,16.74
2023-05-15T18:27:02.339Z,17.01
2023-05-15T18:29:47.978Z,17.05
2023-05-15T18:32:34.174Z,16.51
2023-05-15T18:35:19.493Z,15.84
2023-05-15T18:38:05.862Z,16.86
2023-05-15T18:40:52.122Z,16.80
2023-05-15T18:43:37.954Z,17.08
2023-05-15T18:46:25.690Z,16.06
2023-05-15T18:49:11.397Z,16.30
2023-05-15T18:51:57.982Z,17.27
2023-05-15T18:54:43.296Z,17.22
2023-05-15T18:57:28.797Z,17.33
2023-05-15T19:00:18.866Z,17.11
2023-05-15T19:03:10.053Z,16.19
2023-05-15T19:05:56.944Z,17.25
2023-05-15T19:08:43.035Z,17.44
2023-05-15T19:11:29.573Z,16.52
2023-05-15T19:14:15.689Z,17.47
2023-05-15T19:17:01.809Z,17.39
2023-05-15T19:19:47.844Z,17.45
2023-05-15T19:22:33.274Z,17.26
2023-05-15T19:25:18.747Z,16.29
2023-05-15T19:28:04.904Z,17.24
2023-05-15T19:30:50.980Z,17.29
2023-05-15T19:33:36.710Z,16.17
2023-05-15T19:36:22.791Z,17.15
2023-05-15T19:39:08.537Z,17.19
2023-05-15T19:41:55.791Z,17.01
2023-05-15T19:44:42.574Z,17.16
2023-05-15T19:47:28.356Z,16.24
2023-05-15T19:50:14.122Z,17.19
2023-05-15T19:52:59.608Z,16.70
2023-05-15T19:55:45.472Z,16.93
2023-05-15T19:58:31.867Z,17.14
2023-05-15T20:01:18.030Z,17.18
2023-05-15T20:04:03.813Z,16.20
2023-05-15T20:06:49.068Z,17.05
2023-05-15T20:09:34.483Z,15.91
2023-05-15T20:12:19.796Z,16.97
2023-05-15T20:15:06.907Z,16.94
2023-05-15T20:17:53.607Z,16.92
2023-05-15T20:20:39.245Z,16.69
2023-05-15T20:23:24.695Z,16.94
2023-05-15T20:26:10.060Z,17.01
2023-05-15T20:28:55.586Z,15.97
2023-05-15T20:31:40.954Z,16.98
2023-05-15T20:34:26.208Z,16.76
2023-05-15T20:37:13.185Z,16.94
2023-05-15T20:39:58.788Z,16.93
2023-05-15T20:42:44.246Z,15.72
2023-05-15T20:45:29.999Z,15.72
2023-05-15T20:48:15.208Z,16.81
2023-05-15T20:51:00.648Z,16.79
2023-05-15T20:53:46.031Z,15.60
2023-05-15T20:56:31.816Z,15.61
2023-05-15T20:59:17.059Z,16.65
2023-05-15T21:02:02.465Z,15.82
2023-05-15T21:04:48.076Z,16.36
2023-05-15T21:07:33.520Z,16.42
2023-05-15T21:10:20.316Z,16.65
2023-05-15T21:13:05.760Z,16.19
2023-05-15T21:15:51.387Z,15.36
2023-05-15T21:18:39.030Z,15.75
2023-05-15T21:21:24.879Z,16.49
2023-05-15T21:24:10.383Z,16.47
2023-05-15T21:26:55.943Z,16.42
2023-05-15T21:29:41.177Z,15.24
2023-05-15T21:32:26.524Z,15.90
2023-05-15T21:35:12.034Z,16.31
2023-05-15T21:37:57.776Z,16.34
2023-05-15T21:40:43.267Z,15.60
2023-05-15T21:43:28.582Z,15.83
2023-05-15T21:46:13.979Z,15.24
2023-05-15T21:48:59.710Z,15.24
2023-05-15T21:51:45.246Z,16.17
2023-05-15T21:54:30.758Z,15.15
2023-05-15T21:57:16.111Z,15.51
2023-05-15T22:00:01.482Z,16.06
2023-05-15T22:02:46.745Z,15.99
2023-05-15T22:05:32.110Z,16.22
2023-05-15T22:08:18.961Z,16.19
2023-05-15T22:11:05.167Z,16.06
2023-05-15T22:13:50.716Z,16.12
2023-05-15T22:16:36.450Z,16.05
2023-05-15T22:19:32.702Z,16.06
2023-05-15T22:22:20.890Z,15.32
2023-05-15T22:25:06.893Z,14.65
2023-05-15T22:27:52.595Z,14.90
2023-05-15T22:30:38.217Z,15.00
2023-05-15T22:33:24.409Z,15.15
2023-05-15T22:36:10.036Z,16.11
2023-05-15T22:38:55.392Z,16.08
2023-05-15T22:41:40.760Z,16.09
2023-05-15T22:44:26.085Z,14.96
2023-05-15T22:47:11.573Z,15.01
2023-05-15T22:49:57.080Z,14.93
2023-05-15T22:52:42.384Z,16.04
2023-05-15T22:55:28.138Z,16.02
2023-05-15T22:58:13.833Z,14.78
2023-05-15T23:01:00.185Z,15.98
2023-05-15T23:03:46.266Z,14.87
2023-05-15T23:06:33.712Z,15.41
2023-05-15T23:09:19.345Z,15.86
2023-05-15T23:12:05.003Z,14.78
2023-05-15T23:14:51.738Z,15.65
2023-05-15T23:17:37.182Z,15.63
2023-05-15T23:20:22.616Z,15.81
2023-05-15T23:23:07.910Z,15.87
2023-05-15T23:25:53.507Z,15.58
2023-05-15T23:28:39.035Z,15.15
2023-05-15T23:31:24.331Z,14.83
2023-05-15T23:34:09.906Z,15.94
2023-05-15T23:36:55.333Z,15.85
2023-05-15T23:39:40.663Z,15.80
2023-05-15T23:42:25.893Z,14.65
2023-05-15T23:45:13.719Z,15.38
2023-05-15T23:47:59.273Z,14.45
2023-05-15T23:50:45.183Z,14.54
2023-05-15T23:53:31.187Z,15.65
2023-05-15T23:56:16.478Z,15.41
2023-05-15T23:59:01.891Z,15.05
